createdAt,value
2017-12-15T00:02:08.950Z,98937.45
2017-12-15T00:04:35.147Z,98942.31
2017-12-15T00:07:01.577Z,98943.55
2017-12-15T00:09:27.837Z,98940.44
2017-12-15T00:11:54.061Z,98941.81
2017-12-15T00:14:20.355Z,98946.59
2017-12-15T00:16:46.606Z,98944.88
2017-12-15T00:19:13.037Z,98937.66
2017-12-15T00:21:39.228Z,98941.16
2017-12-15T00:24:05.466Z,98942.74
2017-12-15T00:26:31.666Z,98948.36
2017-12-15T00:28:57.917Z,98944.30
2017-12-15T00:31:24.150Z,98944.73
2017-12-15T00:33:50.339Z,98953.04
2017-12-15T00:36:16.538Z,98947.41
2017-12-15T00:38:42.828Z,98951.73
2017-12-15T00:41:09.037Z,98945.29
2017-12-15T00:43:35.258Z,98946.09
2017-12-15T00:46:01.544Z,98957.10
2017-12-15T00:48:27.980Z,98967.28
2017-12-15T00:50:54.160Z,98968.64
2017-12-15T00:53:20.651Z,98971.59
2017-12-15T00:55:46.872Z,98968.22
2017-12-15T00:58:13.084Z,98975.59
2017-12-15T01:00:45.209Z,98972.47
2017-12-15T01:03:11.388Z,98984.77
2017-12-15T01:05:37.574Z,98974.27
2017-12-15T01:08:03.914Z,98981.83
2017-12-15T01:10:30.104Z,98977.89
2017-12-15T01:12:56.293Z,98980.36
2017-12-15T01:15:22.529Z,98977.11
2017-12-15T01:17:48.700Z,98983.01
2017-12-15T01:20:15.130Z,98991.55
2017-12-15T01:22:41.365Z,98991.09
2017-12-15T01:25:07.545Z,98987.02
2017-12-15T01:27:33.723Z,98989.73
2017-12-15T01:29:59.970Z,98986.23
2017-12-15T01:32:26.157Z,98988.34
2017-12-15T01:34:52.340Z,98986.59
2017-12-15T01:37:18.578Z,98989.66
2017-12-15T01:39:44.827Z,98985.59
2017-12-15T01:42:11.034Z,98990.46
2017-12-15T01:44:37.289Z,98991.12
2017-12-15T01:47:03.506Z,98986.38
2017-12-15T01:49:29.686Z,98992.00
2017-12-15T01:51:55.952Z,98989.81
2017-12-15T01:54:22.153Z,98999.03
2017-12-15T01:56:48.354Z,98997.73
2017-12-15T01:59:14.646Z,99001.23
2017-12-15T02:01:40.811Z,98999.64
2017-12-15T02:04:07.013Z,99003.42
2017-12-15T02:06:33.238Z,99002.39
2017-12-15T02:08:59.690Z,99008.66
2017-12-15T02:11:25.871Z,99005.95
2017-12-15T02:13:52.108Z,99011.41
2017-12-15T02:16:18.290Z,99011.28
2017-12-15T02:18:44.491Z,99005.66
2017-12-15T02:21:10.737Z,99008.88
2017-12-15T02:23:36.922Z,99002.31
2017-12-15T02:26:03.109Z,99006.09
2017-12-15T02:28:29.353Z,99003.14
2017-12-15T02:30:55.551Z,99009.92
2017-12-15T02:33:21.828Z,99003.36
2017-12-15T02:35:48.062Z,99013.83
2017-12-15T02:38:14.245Z,99009.19
2017-12-15T02:40:40.691Z,99008.38
2017-12-15T02:43:06.936Z,99014.61
2017-12-15T02:45:33.132Z,99011.11
2017-12-15T02:47:59.402Z,99016.30
2017-12-15T02:50:25.648Z,99015.36
2017-12-15T02:52:51.808Z,99020.23
2017-12-15T02:55:18.007Z,99018.98
2017-12-15T02:57:44.245Z,99017.66
2017-12-15T03:00:11.349Z,99025.92
2017-12-15T03:02:37.529Z,99027.23
2017-12-15T03:05:03.777Z,99025.59
2017-12-15T03:07:30.201Z,99031.66
2017-12-15T03:09:56.387Z,99035.20
2017-12-15T03:12:22.646Z,99033.91
2017-12-15T03:14:49.078Z,99040.46
2017-12-15T03:17:15.263Z,99037.91
2017-12-15T03:19:41.484Z,99043.95
2017-12-15T03:22:07.684Z,99044.19
2017-12-15T03:24:33.878Z,99048.05
2017-12-15T03:27:00.136Z,99046.06
2017-12-15T03:29:26.616Z,99057.56
2017-12-15T03:31:52.811Z,99059.38
2017-12-15T03:34:19.064Z,99061.70
2017-12-15T03:36:45.265Z,99066.80
2017-12-15T03:39:11.750Z,99063.69
2017-12-15T03:41:38.039Z,99067.05
2017-12-15T03:44:04.485Z,99070.67
2017-12-15T03:46:30.664Z,99067.47
2017-12-15T03:48:56.905Z,99077.76
2017-12-15T03:51:23.077Z,99071.06
2017-12-15T03:53:49.258Z,99067.58
2017-12-15T03:56:15.516Z,99072.75
2017-12-15T03:58:41.935Z,99075.06
2017-12-15T04:01:08.375Z,99084.22
2017-12-15T04:03:34.626Z,99079.30
2017-12-15T04:06:01.064Z,99084.17
2017-12-15T04:08:27.473Z,99084.30
2017-12-15T04:10:53.725Z,99080.79
2017-12-15T04:13:19.912Z,99085.10
2017-12-15T04:15:46.119Z,99079.93
2017-12-15T04:18:12.609Z,99079.42
2017-12-15T04:20:38.811Z,99076.30
2017-12-15T04:23:05.090Z,99075.92
2017-12-15T04:25:31.305Z,99075.06
2017-12-15T04:27:57.498Z,99084.67
2017-12-15T04:30:23.693Z,99085.17
2017-12-15T04:32:49.960Z,99093.54
2017-12-15T04:35:16.387Z,99088.44
2017-12-15T04:37:42.580Z,99089.32
2017-12-15T04:40:08.816Z,99091.42
2017-12-15T04:42:35.034Z,99089.68
2017-12-15T04:47:32.911Z,99091.19
2017-12-15T04:49:59.115Z,99094.25
2017-12-15T04:52:25.300Z,99099.91
2017-12-15T04:54:51.554Z,99101.11
2017-12-15T04:57:17.755Z,99109.46
2017-12-15T04:59:44.219Z,99108.59
2017-12-15T05:02:10.475Z,99112.53
2017-12-15T05:04:36.666Z,99123.44
2017-12-15T05:07:03.094Z,99126.52
2017-12-15T05:09:29.341Z,99130.93
2017-12-15T05:11:55.528Z,99135.31
2017-12-15T05:14:21.821Z,99133.62
2017-12-15T05:16:49.181Z,99135.67
2017-12-15T05:19:16.197Z,99140.86
2017-12-15T05:21:42.867Z,99145.27
2017-12-15T05:24:09.529Z,99143.98
2017-12-15T05:26:36.089Z,99146.66
2017-12-15T05:29:02.319Z,99149.27
2017-12-15T05:31:28.580Z,99146.73
2017-12-15T05:33:54.784Z,99146.22
2017-12-15T05:36:20.988Z,99150.66
2017-12-15T05:38:47.210Z,99155.75
2017-12-15T05:41:13.956Z,99166.44
2017-12-15T05:43:40.151Z,99177.55
2017-12-15T05:46:06.945Z,99175.73
2017-12-15T05:48:33.210Z,99173.09
2017-12-15T05:50:59.409Z,99177.98
2017-12-15T05:53:25.662Z,99182.47
2017-12-15T05:55:51.855Z,99183.53
2017-12-15T05:58:18.058Z,99187.47
2017-12-15T06:00:44.306Z,99191.03
2017-12-15T06:03:10.502Z,99190.11
2017-12-15T06:05:36.715Z,99189.34
2017-12-15T06:08:02.959Z,99201.53
2017-12-15T06:10:29.156Z,99203.28
2017-12-15T06:12:55.360Z,99205.07
2017-12-15T06:15:21.599Z,99206.45
2017-12-15T06:17:47.797Z,99214.38
2017-12-15T06:20:14.017Z,99216.95
2017-12-15T06:22:40.303Z,99220.86
2017-12-15T06:25:06.506Z,99230.10
2017-12-15T06:27:32.710Z,99226.53
2017-12-15T06:29:59.058Z,99228.84
2017-12-15T06:32:25.627Z,99231.84
2017-12-15T06:34:51.855Z,99229.67
2017-12-15T06:37:18.125Z,99235.48
2017-12-15T06:39:44.330Z,99244.13
2017-12-15T06:42:10.631Z,99247.02
2017-12-15T06:44:36.911Z,99249.05
2017-12-15T06:47:03.128Z,99245.31
2017-12-15T06:49:29.342Z,99245.20
2017-12-15T06:51:55.624Z,99242.00
2017-12-15T06:54:22.059Z,99252.88
2017-12-15T06:56:48.258Z,99255.99
2017-12-15T06:59:14.766Z,99252.63
2017-12-15T07:01:44.312Z,99251.63
2017-12-15T07:04:10.518Z,99257.61
2017-12-15T07:06:36.800Z,99262.61
2017-12-15T07:09:03.107Z,99261.41
2017-12-15T07:11:29.299Z,99264.47
2017-12-15T07:13:55.541Z,99264.34
2017-12-15T07:16:21.760Z,99258.59
2017-12-15T07:18:47.969Z,99256.88
2017-12-15T07:21:14.224Z,99255.56
2017-12-15T07:23:40.485Z,99257.73
2017-12-15T07:26:06.690Z,99263.91
2017-12-15T07:28:32.978Z,99270.72
2017-12-15T07:30:59.252Z,99283.81
2017-12-15T07:33:25.685Z,99284.75
2017-12-15T07:35:51.935Z,99283.69
2017-12-15T07:38:18.140Z,99282.63
2017-12-15T07:40:44.358Z,99297.84
2017-12-15T07:43:10.730Z,99291.25
2017-12-15T07:45:36.940Z,99288.67
2017-12-15T07:48:03.130Z,99294.81
2017-12-15T07:50:29.615Z,99295.68
2017-12-15T07:52:55.824Z,99297.84
2017-12-15T07:55:22.034Z,99300.92
2017-12-15T07:57:48.295Z,99304.80
2017-12-15T08:00:14.581Z,99301.97
2017-12-15T08:02:40.771Z,99306.59
2017-12-15T08:05:07.046Z,99309.34
2017-12-15T08:07:33.251Z,99311.77
2017-12-15T08:09:59.455Z,99308.97
2017-12-15T08:12:25.710Z,99310.73
2017-12-15T08:14:51.897Z,99311.09
2017-12-15T08:17:18.450Z,99312.45
2017-12-15T08:19:44.704Z,99315.45
2017-12-15T08:22:10.909Z,99321.20
2017-12-15T08:24:37.123Z,99326.88
2017-12-15T08:27:03.364Z,99322.45
2017-12-15T08:29:29.610Z,99329.30
2017-12-15T08:31:55.831Z,99330.11
2017-12-15T08:34:22.083Z,99337.09
2017-12-15T08:36:48.583Z,99339.42
2017-12-15T08:39:14.784Z,99338.61
2017-12-15T08:41:41.053Z,99345.86
2017-12-15T08:44:07.286Z,99352.46
2017-12-15T08:46:33.466Z,99352.03
2017-12-15T08:48:59.712Z,99358.15
2017-12-15T08:51:25.916Z,99365.52
2017-12-15T08:53:52.116Z,99366.38
2017-12-15T08:56:18.597Z,99367.95
2017-12-15T08:58:44.786Z,99366.58
2017-12-15T09:01:10.975Z,99371.88
2017-12-15T09:03:37.465Z,99378.42
2017-12-15T09:06:03.677Z,99379.37
2017-12-15T09:08:29.900Z,99385.05
2017-12-15T09:10:56.416Z,99387.22
2017-12-15T09:13:22.664Z,99390.42
2017-12-15T09:15:48.871Z,99395.10
2017-12-15T09:18:15.133Z,99402.29
2017-12-15T09:20:41.359Z,99412.28
2017-12-15T09:23:07.568Z,99417.07
2017-12-15T09:25:33.834Z,99424.39
2017-12-15T09:28:00.069Z,99431.86
2017-12-15T09:30:26.511Z,99429.57
2017-12-15T09:32:52.758Z,99430.68
2017-12-15T09:35:19.014Z,99434.63
2017-12-15T09:37:45.213Z,99443.31
2017-12-15T09:40:11.466Z,99446.74
2017-12-15T09:42:37.669Z,99451.28
2017-12-15T09:45:03.951Z,99449.14
2017-12-15T09:47:30.188Z,99447.29
2017-12-15T09:49:56.402Z,99460.72
2017-12-15T09:52:22.598Z,99460.45
2017-12-15T09:54:48.823Z,99458.27
2017-12-15T09:57:15.033Z,99459.02
2017-12-15T09:59:41.217Z,99467.27
2017-12-15T10:02:07.466Z,99469.95
2017-12-15T10:04:33.674Z,99473.45
2017-12-15T10:06:59.932Z,99480.44
2017-12-15T10:09:26.150Z,99477.07
2017-12-15T10:11:52.344Z,99486.41
2017-12-15T10:14:18.599Z,99487.40
2017-12-15T10:16:44.794Z,99493.02
2017-12-15T10:19:11.038Z,99485.61
2017-12-15T10:21:37.295Z,99492.98
2017-12-15T10:24:03.501Z,99493.09
2017-12-15T10:26:29.710Z,99493.52
2017-12-15T10:28:55.970Z,99486.47
2017-12-15T10:31:22.167Z,99493.02
2017-12-15T10:33:48.366Z,99490.89
2017-12-15T10:36:14.663Z,99488.28
2017-12-15T10:38:40.852Z,99490.84
2017-12-15T10:41:07.039Z,99489.70
2017-12-15T10:43:33.270Z,99497.90
2017-12-15T10:45:59.480Z,99492.38
2017-12-15T10:48:25.694Z,99500.91
2017-12-15T10:50:51.985Z,99505.77
2017-12-15T10:53:18.198Z,99509.68
2017-12-15T10:55:44.418Z,99505.27
2017-12-15T10:58:10.911Z,99510.06
2017-12-15T11:00:37.121Z,99508.86
2017-12-15T11:03:03.368Z,99509.36
2017-12-15T11:05:29.885Z,99514.16
2017-12-15T11:07:56.327Z,99514.16
2017-12-15T11:10:22.619Z,99521.49
2017-12-15T11:12:49.106Z,99521.97
2017-12-15T11:15:15.301Z,99526.40
2017-12-15T11:17:41.786Z,99534.66
2017-12-15T11:20:08.272Z,99531.64
2017-12-15T11:22:34.477Z,99534.09
2017-12-15T11:25:00.684Z,99541.20
2017-12-15T11:27:26.959Z,99544.64
2017-12-15T11:29:53.153Z,99549.83
2017-12-15T11:32:19.358Z,99549.39
2017-12-15T11:34:45.616Z,99551.14
2017-12-15T11:37:12.071Z,99549.45
2017-12-15T11:39:38.272Z,99541.63
2017-12-15T11:42:04.542Z,99546.83
2017-12-15T11:44:30.814Z,99545.58
2017-12-15T11:46:57.152Z,99550.00
2017-12-15T11:49:23.406Z,99552.88
2017-12-15T11:51:49.593Z,99557.13
2017-12-15T11:54:15.796Z,99553.34
2017-12-15T11:56:42.057Z,99557.30
2017-12-15T11:59:08.275Z,99563.59
2017-12-15T12:01:34.482Z,99555.77
2017-12-15T12:04:00.727Z,99561.46
2017-12-15T12:06:26.934Z,99560.80
2017-12-15T12:08:53.127Z,99563.92
2017-12-15T12:11:19.394Z,99568.66
2017-12-15T12:13:45.580Z,99566.44
2017-12-15T12:16:11.934Z,99573.05
2017-12-15T12:18:38.190Z,99575.28
2017-12-15T12:21:04.410Z,99573.58
2017-12-15T12:23:30.847Z,99577.16
2017-12-15T12:25:57.101Z,99579.38
2017-12-15T12:28:23.312Z,99582.40
2017-12-15T12:30:49.742Z,99587.63
2017-12-15T12:33:16.005Z,99589.37
2017-12-15T12:35:42.207Z,99591.58
2017-12-15T12:38:08.413Z,99592.48
2017-12-15T12:40:34.670Z,99596.33
2017-12-15T12:43:00.863Z,99602.00
2017-12-15T12:45:27.301Z,99603.25
2017-12-15T12:47:53.578Z,99603.19
2017-12-15T12:50:20.069Z,99608.97
2017-12-15T12:52:46.280Z,99605.92
2017-12-15T12:55:12.550Z,99611.55
2017-12-15T12:57:38.985Z,99607.34
2017-12-15T13:00:05.208Z,99611.61
2017-12-15T13:02:31.459Z,99618.42
2017-12-15T13:04:57.898Z,99621.36
2017-12-15T13:07:24.230Z,99624.38
2017-12-15T13:09:50.502Z,99625.30
2017-12-15T13:12:17.182Z,99624.53
2017-12-15T13:14:43.422Z,99628.03
2017-12-15T13:17:09.696Z,99634.27
2017-12-15T13:19:35.928Z,99632.47
2017-12-15T13:22:02.117Z,99638.86
2017-12-15T13:24:28.380Z,99634.80
2017-12-15T13:26:54.614Z,99639.12
2017-12-15T13:29:20.802Z,99641.91
2017-12-15T13:31:47.450Z,99647.27
2017-12-15T13:34:13.658Z,99639.94
2017-12-15T13:36:40.089Z,99642.55
2017-12-15T13:39:06.329Z,99649.94
2017-12-15T13:41:32.527Z,99655.19
2017-12-15T13:43:58.738Z,99656.11
2017-12-15T13:46:25.011Z,99665.72
2017-12-15T13:48:51.235Z,99667.41
2017-12-15T13:51:17.459Z,99664.84
2017-12-15T13:53:43.718Z,99672.70
2017-12-15T13:56:09.917Z,99674.50
2017-12-15T13:58:36.427Z,99669.22
2017-12-15T14:01:02.665Z,99675.81
2017-12-15T14:03:28.857Z,99674.15
2017-12-15T14:05:55.059Z,99673.75
2017-12-15T14:08:21.664Z,99681.89
2017-12-15T14:10:47.875Z,99682.81
2017-12-15T14:13:14.411Z,99680.30
2017-12-15T14:15:41.220Z,99685.61
2017-12-15T14:18:07.402Z,99687.79
2017-12-15T14:20:33.620Z,99692.21
2017-12-15T14:22:59.850Z,99694.41
2017-12-15T14:25:26.139Z,99703.56
2017-12-15T14:27:52.333Z,99704.83
2017-12-15T14:30:18.780Z,99705.27
2017-12-15T14:32:45.040Z,99713.95
2017-12-15T14:35:11.233Z,99714.38
2017-12-15T14:37:37.432Z,99720.84
2017-12-15T14:40:03.678Z,99729.28
2017-12-15T14:42:30.126Z,99729.77
2017-12-15T14:44:56.327Z,99734.16
2017-12-15T14:47:22.934Z,99743.33
2017-12-15T14:49:49.231Z,99754.20
2017-12-15T14:52:15.424Z,99757.36
2017-12-15T14:54:41.645Z,99753.97
2017-12-15T14:57:07.924Z,99756.25
2017-12-15T14:59:34.129Z,99755.00
2017-12-15T15:02:00.346Z,99758.89
2017-12-15T15:04:26.591Z,99754.95
2017-12-15T15:06:52.809Z,99756.27
2017-12-15T15:09:19.003Z,99758.59
2017-12-15T15:11:45.250Z,99766.47
2017-12-15T15:14:11.484Z,99773.84
2017-12-15T15:16:37.685Z,99772.58
2017-12-15T15:19:03.935Z,99779.56
2017-12-15T15:21:30.109Z,99784.33
2017-12-15T15:23:56.314Z,99789.13
2017-12-15T15:26:22.579Z,99785.73
2017-12-15T15:28:48.765Z,99781.86
2017-12-15T15:31:14.949Z,99784.47
2017-12-15T15:33:41.556Z,99777.38
2017-12-15T15:36:07.733Z,99783.89
2017-12-15T15:38:33.950Z,99788.88
2017-12-15T15:41:00.619Z,99788.05
2017-12-15T15:43:26.869Z,99795.43
2017-12-15T15:45:53.097Z,99793.23
2017-12-15T15:48:19.641Z,99789.74
2017-12-15T15:50:45.908Z,99790.13
2017-12-15T15:53:12.114Z,99796.69
2017-12-15T15:55:38.407Z,99795.53
2017-12-15T15:58:04.599Z,99802.18
2017-12-15T16:00:30.825Z,99797.86
2017-12-15T16:02:57.493Z,99806.06
2017-12-15T16:05:23.715Z,99803.92
2017-12-15T16:07:50.024Z,99812.67
2017-12-15T16:10:16.375Z,99815.73
2017-12-15T16:12:42.575Z,99811.84
2017-12-15T16:15:08.789Z,99818.30
2017-12-15T16:17:35.050Z,99821.41
2017-12-15T16:20:01.266Z,99822.77
2017-12-15T16:22:27.779Z,99820.14
2017-12-15T16:24:54.016Z,99820.09
2017-12-15T16:27:20.268Z,99829.55
2017-12-15T16:29:46.469Z,99834.02
2017-12-15T16:32:12.768Z,99832.32
2017-12-15T16:34:39.003Z,99842.41
2017-12-15T16:37:05.204Z,99846.69
2017-12-15T16:39:31.875Z,99840.52
2017-12-15T16:41:58.086Z,99851.29
2017-12-15T16:44:24.329Z,99854.84
2017-12-15T16:46:50.621Z,99855.86
2017-12-15T16:49:17.170Z,99857.13
2017-12-15T16:51:43.427Z,99860.22
2017-12-15T16:54:10.055Z,99850.67
2017-12-15T16:56:36.279Z,99861.53
2017-12-15T16:59:02.522Z,99861.06
2017-12-15T17:01:28.811Z,99862.70
2017-12-15T17:03:55.039Z,99866.63
2017-12-15T17:06:21.260Z,99866.64
2017-12-15T17:08:47.900Z,99873.19
2017-12-15T17:11:14.120Z,99869.25
2017-12-15T17:13:40.321Z,99874.88
2017-12-15T17:16:06.590Z,99878.42
2017-12-15T17:18:32.806Z,99875.04
2017-12-15T17:20:59.334Z,99881.09
2017-12-15T17:23:25.607Z,99875.95
2017-12-15T17:25:52.054Z,99879.89
2017-12-15T17:28:18.302Z,99873.72
2017-12-15T17:30:44.805Z,99875.56
2017-12-15T17:33:11.036Z,99881.69
2017-12-15T17:35:37.274Z,99880.82
2017-12-15T17:38:03.778Z,99887.02
2017-12-15T17:40:30.016Z,99885.19
2017-12-15T17:42:56.405Z,99889.51
2017-12-15T17:45:23.066Z,99893.39
2017-12-15T17:47:49.249Z,99889.89
2017-12-15T17:50:15.594Z,99892.56
2017-12-15T17:52:41.929Z,99889.05
2017-12-15T17:55:08.117Z,99890.42
2017-12-15T17:57:34.569Z,99892.22
2017-12-15T18:00:00.829Z,99897.47
2017-12-15T18:02:27.039Z,99901.30
2017-12-15T18:04:53.251Z,99903.81
2017-12-15T18:07:19.540Z,99906.34
2017-12-15T18:09:45.839Z,99908.14
2017-12-15T18:12:12.047Z,99915.61
2017-12-15T18:14:38.981Z,99917.27
2017-12-15T18:17:05.190Z,99927.36
2017-12-15T18:19:31.380Z,99924.44
2017-12-15T18:21:58.025Z,99924.88
2017-12-15T18:24:24.314Z,99921.88
2017-12-15T18:26:50.546Z,99929.20
2017-12-15T18:29:16.797Z,99932.17
2017-12-15T18:31:43.008Z,99920.03
2017-12-15T18:34:09.235Z,99926.97
2017-12-15T18:36:35.478Z,99925.66
2017-12-15T18:39:01.682Z,99926.49
2017-12-15T18:41:27.885Z,99930.41
2017-12-15T18:43:54.132Z,99926.91
2017-12-15T18:46:20.437Z,99928.62
2017-12-15T18:48:46.659Z,99933.14
2017-12-15T18:51:13.331Z,99939.69
2017-12-15T18:53:39.603Z,99945.81
2017-12-15T18:56:06.088Z,99954.09
2017-12-15T18:58:32.655Z,99947.89
2017-12-15T19:00:58.908Z,99951.53
2017-12-15T19:03:25.199Z,99947.95
2017-12-15T19:05:51.506Z,99951.81
2017-12-15T19:08:17.738Z,99962.70
2017-12-15T19:10:43.952Z,99964.45
2017-12-15T19:13:10.556Z,99962.75
2017-12-15T19:15:36.771Z,99961.97
2017-12-15T19:18:02.994Z,99963.61
2017-12-15T19:20:29.285Z,99971.09
2017-12-15T19:22:55.505Z,99968.03
2017-12-15T19:25:21.716Z,99971.63
2017-12-15T19:27:48.004Z,99973.38
2017-12-15T19:30:14.218Z,99968.87
2017-12-15T19:32:40.468Z,99969.25
2017-12-15T19:35:06.728Z,99972.66
2017-12-15T19:37:33.178Z,99974.78
2017-12-15T19:39:59.376Z,99973.08
2017-12-15T19:42:26.011Z,99979.16
2017-12-15T19:44:52.218Z,99975.22
2017-12-15T19:47:18.422Z,99977.75
2017-12-15T19:49:44.927Z,99978.67
2017-12-15T19:52:11.135Z,99977.50
2017-12-15T19:54:37.382Z,99975.42
2017-12-15T19:57:03.650Z,99977.13
2017-12-15T19:59:29.847Z,99975.77
2017-12-15T20:01:56.277Z,99982.80
2017-12-15T20:04:22.527Z,99985.47
2017-12-15T20:06:48.731Z,99990.27
2017-12-15T20:09:14.970Z,99998.17
2017-12-15T20:11:41.241Z,99994.16
2017-12-15T20:14:07.458Z,99990.61
2017-12-15T20:16:33.675Z,99994.64
2017-12-15T20:18:59.936Z,99993.22
2017-12-15T20:21:26.401Z,100000.61
2017-12-15T20:23:52.590Z,99988.38
2017-12-15T20:26:18.860Z,99995.80
2017-12-15T20:28:45.100Z,99989.25
2017-12-15T20:31:11.329Z,99989.25
2017-12-15T20:33:37.585Z,99990.18
2017-12-15T20:36:03.803Z,99989.78
2017-12-15T20:38:30.007Z,99988.96
2017-12-15T20:40:56.283Z,99990.66
2017-12-15T20:43:22.466Z,99988.47
2017-12-15T20:45:48.694Z,99997.11
2017-12-15T20:48:14.968Z,99997.94
2017-12-15T20:50:41.169Z,100000.13
2017-12-15T20:53:07.382Z,100007.94
2017-12-15T20:55:33.653Z,100008.88
2017-12-15T20:57:59.860Z,100009.78
2017-12-15T21:00:26.161Z,100009.25
2017-12-15T21:02:52.412Z,100009.59
2017-12-15T21:05:18.610Z,100009.59
2017-12-15T21:07:44.814Z,100012.22
2017-12-15T21:10:11.377Z,100011.39
2017-12-15T21:12:37.839Z,100008.39
2017-12-15T21:15:04.045Z,100011.09
2017-12-15T21:20:02.220Z,100018.62
2017-12-15T21:22:28.424Z,100021.24
2017-12-15T21:24:54.686Z,100014.74
2017-12-15T21:27:20.888Z,100007.75
2017-12-15T21:29:47.086Z,100006.63
2017-12-15T21:32:13.587Z,100009.06
2017-12-15T21:34:39.807Z,100007.70
2017-12-15T21:37:06.243Z,100014.73
2017-12-15T21:39:32.496Z,100009.44
2017-12-15T21:41:58.935Z,100010.70
2017-12-15T21:44:25.148Z,100008.52
2017-12-15T21:46:51.398Z,100009.74
2017-12-15T21:49:17.609Z,100019.74
2017-12-15T21:51:43.839Z,100011.20
2017-12-15T21:54:10.365Z,100015.13
2017-12-15T21:56:36.786Z,100011.14
2017-12-15T21:59:03.023Z,100019.44
2017-12-15T22:01:29.317Z,100015.17
2017-12-15T22:03:55.513Z,100020.91
2017-12-15T22:06:21.706Z,100020.47
2017-12-15T22:08:48.176Z,100022.26
2017-12-15T22:11:14.382Z,100026.20
2017-12-15T22:13:40.800Z,100024.09
2017-12-15T22:16:07.052Z,100032.80
2017-12-15T22:18:33.254Z,100032.75
2017-12-15T22:20:59.492Z,100031.42
2017-12-15T22:23:26.490Z,100032.30
2017-12-15T22:25:52.714Z,100028.38
2017-12-15T22:28:18.933Z,100035.84
2017-12-15T22:30:45.190Z,100033.56
2017-12-15T22:33:11.403Z,100038.86
2017-12-15T22:35:37.602Z,100048.17
2017-12-15T22:38:03.954Z,100045.51
2017-12-15T22:40:30.150Z,100051.48
2017-12-15T22:42:56.426Z,100049.34
2017-12-15T22:45:23.061Z,100042.31
2017-12-15T22:47:49.265Z,100050.66
2017-12-15T22:50:15.481Z,100054.19
2017-12-15T22:52:41.747Z,100055.46
2017-12-15T22:55:07.953Z,100057.64
2017-12-15T22:57:34.171Z,100060.74
2017-12-15T23:00:00.731Z,100063.81
2017-12-15T23:02:26.951Z,100070.37
2017-12-15T23:04:53.157Z,100067.83
2017-12-15T23:07:19.429Z,100076.56
2017-12-15T23:09:45.621Z,100077.06
2017-12-15T23:12:11.830Z,100082.77
2017-12-15T23:14:38.307Z,100083.21
2017-12-15T23:17:04.555Z,100080.69
2017-12-15T23:19:30.762Z,100081.08
2017-12-15T23:21:57.009Z,100080.59
2017-12-15T23:24:23.457Z,100073.07
2017-12-15T23:26:49.658Z,100073.91
2017-12-15T23:29:16.285Z,100072.59
2017-12-15T23:34:14.294Z,100073.95
2017-12-15T23:36:40.532Z,100074.38
2017-12-15T23:39:06.953Z,100073.08
2017-12-15T23:41:33.142Z,100078.72
2017-12-15T23:43:59.804Z,100078.36
2017-12-15T23:46:26.284Z,100081.91
2017-12-15T23:48:52.500Z,100079.77
2017-12-15T23:51:18.783Z,100081.47
2017-12-15T23:53:44.969Z,100075.34
2017-12-15T23:59:16.577Z,100077.53
